Eatons Neck, New York
Current Conditions -  °F | °C
As of 11:13 AM on Wednesday 26 Nov 2014 (Local Time) from KISP Reporting Station
Light Rain Light Rain  
Wind Chill: 29°   Ceiling: 700
Heat Index: 38°   Visibility: 1.5mi
Dew Point: 35°   Wind: 17mph
Humidity: 89%   Direction: 20°NNE
Pressure: 30.03"   Gusts: 24mph
Location:  40.9096°N, 73.3231°W
Report Text: KISP 261613Z 02015G21KT 1 1/2SM -RA BR BKN007 BKN032 OVC055 03/02 A3003 RMK AO2 SFC VIS 2 PLE11 PRESFR P0002 T00330017
Loading
Personal Weather Stations






























Interactive Weather Map New forecast layout! Learn more

10-Day Weather Forecast

Advertisements
Track Severe Weather on mobile